ACH2055 HUEN-LEIB
Flight info
| Callsign | ACH2055 |
|---|---|
| Flight time | N/A |
| Altitude | 30000 |
| Route | DUGBO2B SEZIM UW325 SIPKI UT325 BUN UG862 DIR UB730 BOD UM508 TGU UJ36 BSA UJ66 ALR UG30 SADAF N856 INSUB |
| Aircraft | B738/M-SDE2E3FGHIRWXY/LB1 |
Departure
| Time | 2026-05-07 16:15 |
|---|---|
| Airport | Entebbe International Airport (HUEN) |
Arrival
| Time | N/A |
|---|---|
| Airport | Ibiza Airport (LEIB) |
| Time | Latitude | Longitude | Altitude | Speed | Heading |
|---|---|---|---|---|---|
| 2026-05-07 16:08 | 0.04774 | 32.44147 | 3779 ft | 0 kts | 82° |
| 2026-05-07 16:09 | 0.04772 | 32.44133 | 3785 ft | 3 kts | 82° |
| 2026-05-07 16:09 | 0.04770 | 32.44113 | 3782 ft | 3 kts | 71° |
| 2026-05-07 16:10 | 0.04763 | 32.44094 | 3779 ft | 3 kts | 68° |
| 2026-05-07 16:10 | 0.04752 | 32.44077 | 3784 ft | 3 kts | 38° |
| 2026-05-07 16:10 | 0.04734 | 32.44072 | 3779 ft | 3 kts | 358° |
| 2026-05-07 16:10 | 0.04730 | 32.44072 | 3779 ft | 0 kts | 349° |
| 2026-05-07 16:11 | 0.04735 | 32.44071 | 3779 ft | 6 kts | 349° |
| 2026-05-07 16:11 | 0.04783 | 32.44063 | 3787 ft | 5 kts | 351° |
| 2026-05-07 16:12 | 0.04844 | 32.44045 | 3788 ft | 10 kts | 325° |
| 2026-05-07 16:12 | 0.04909 | 32.44011 | 3784 ft | 12 kts | 347° |
| 2026-05-07 16:12 | 0.05000 | 32.43997 | 3774 ft | 14 kts | 354° |
| 2026-05-07 16:12 | 0.05093 | 32.43984 | 3775 ft | 13 kts | 352° |
| 2026-05-07 16:13 | 0.05183 | 32.43969 | 3776 ft | 13 kts | 351° |
| 2026-05-07 16:13 | 0.05267 | 32.43950 | 3785 ft | 13 kts | 336° |
| 2026-05-07 16:13 | 0.05330 | 32.43893 | 3785 ft | 12 kts | 304° |
| 2026-05-07 16:13 | 0.05375 | 32.43822 | 3787 ft | 12 kts | 302° |
| 2026-05-07 16:14 | 0.05420 | 32.43754 | 3790 ft | 12 kts | 305° |
| 2026-05-07 16:14 | 0.05476 | 32.43697 | 3786 ft | 11 kts | 306° |
| 2026-05-07 16:14 | 0.05448 | 32.43642 | 3785 ft | 11 kts | 183° |
| 2026-05-07 16:14 | 0.05288 | 32.43659 | 3790 ft | 52 kts | 172° |
| 2026-05-07 16:15 | 0.04690 | 32.43742 | 3779 ft | 118 kts | 172° |
| 2026-05-07 16:15 | 0.03696 | 32.43879 | 3771 ft | 168 kts | 173° |
| 2026-05-07 16:15 | 0.02489 | 32.44045 | 4157 ft | 180 kts | 172° |
| 2026-05-07 16:15 | 0.01247 | 32.44233 | 4719 ft | 179 kts | 171° |
| 2026-05-07 16:16 | 0.00016 | 32.44411 | 5318 ft | 179 kts | 172° |
| 2026-05-07 16:16 | -0.01290 | 32.44595 | 5401 ft | 197 kts | 172° |
| 2026-05-07 16:16 | -0.02680 | 32.44787 | 5463 ft | 212 kts | 171° |
| 2026-05-07 16:16 | -0.04219 | 32.44998 | 5582 ft | 234 kts | 172° |
| 2026-05-07 16:17 | -0.05891 | 32.45225 | 5813 ft | 248 kts | 172° |
| 2026-05-07 16:17 | -0.07655 | 32.45466 | 5996 ft | 265 kts | 172° |
| 2026-05-07 16:17 | -0.09528 | 32.45714 | 6318 ft | 276 kts | 174° |
| 2026-05-07 16:17 | -0.11437 | 32.45466 | 6774 ft | 283 kts | 202° |
| 2026-05-07 16:18 | -0.13031 | 32.44311 | 7415 ft | 289 kts | 229° |
| 2026-05-07 16:18 | -0.13985 | 32.42546 | 8158 ft | 293 kts | 254° |
| 2026-05-07 16:18 | -0.14097 | 32.40511 | 8831 ft | 298 kts | 279° |
| 2026-05-07 16:18 | -0.13440 | 32.38539 | 9527 ft | 302 kts | 296° |
| 2026-05-07 16:19 | -0.12434 | 32.36678 | 10175 ft | 307 kts | 300° |
| 2026-05-07 16:19 | -0.11311 | 32.34775 | 10397 ft | 329 kts | 301° |
| 2026-05-07 16:19 | -0.10107 | 32.32743 | 10555 ft | 350 kts | 301° |
| 2026-05-07 16:19 | -0.08849 | 32.30577 | 10708 ft | 370 kts | 300° |
| 2026-05-07 16:20 | -0.07543 | 32.28288 | 10867 ft | 386 kts | 300° |
| 2026-05-07 16:20 | -0.06226 | 32.25951 | 10917 ft | 387 kts | 299° |
| 2026-05-07 16:20 | -0.04908 | 32.23596 | 10925 ft | 389 kts | 299° |
| 2026-05-07 16:20 | -0.03590 | 32.21237 | 10927 ft | 389 kts | 299° |
| 2026-05-07 16:21 | -0.02273 | 32.18880 | 10926 ft | 388 kts | 299° |
| 2026-05-07 16:21 | -0.00963 | 32.16528 | 11250 ft | 394 kts | 299° |
| 2026-05-07 16:21 | 0.00371 | 32.14130 | 11959 ft | 392 kts | 299° |
| 2026-05-07 16:21 | 0.01699 | 32.11743 | 12564 ft | 394 kts | 299° |
| 2026-05-07 16:22 | 0.03040 | 32.09333 | 13081 ft | 399 kts | 299° |
| 2026-05-07 16:22 | 0.04392 | 32.06903 | 13586 ft | 402 kts | 299° |
| 2026-05-07 16:22 | 0.05762 | 32.04444 | 14061 ft | 406 kts | 299° |
| 2026-05-07 16:22 | 0.07141 | 32.01967 | 14547 ft | 408 kts | 299° |
| 2026-05-07 16:23 | 0.08525 | 31.99483 | 15044 ft | 410 kts | 299° |
| 2026-05-07 16:23 | 0.09916 | 31.96985 | 15512 ft | 412 kts | 299° |
| 2026-05-07 16:23 | 0.11298 | 31.94503 | 15975 ft | 414 kts | 299° |
| 2026-05-07 16:23 | 0.12708 | 31.91973 | 16397 ft | 418 kts | 299° |
| 2026-05-07 16:24 | 0.14127 | 31.89426 | 16847 ft | 420 kts | 299° |
| 2026-05-07 16:24 | 0.15556 | 31.86862 | 17288 ft | 422 kts | 299° |
| 2026-05-07 16:24 | 0.16990 | 31.84287 | 17724 ft | 424 kts | 300° |
| 2026-05-07 16:24 | 0.18416 | 31.81727 | 18121 ft | 427 kts | 300° |
| 2026-05-07 16:25 | 0.19868 | 31.79120 | 18477 ft | 430 kts | 299° |
| 2026-05-07 16:25 | 0.21327 | 31.76497 | 18831 ft | 432 kts | 299° |
| 2026-05-07 16:25 | 0.22786 | 31.73866 | 19192 ft | 434 kts | 299° |
| 2026-05-07 16:25 | 0.24253 | 31.71221 | 19548 ft | 435 kts | 299° |
| 2026-05-07 16:26 | 0.25731 | 31.68570 | 19908 ft | 437 kts | 301° |
| 2026-05-07 16:26 | 0.27613 | 31.66226 | 20172 ft | 439 kts | 316° |
| 2026-05-07 16:26 | 0.29777 | 31.64060 | 20549 ft | 440 kts | 315° |
| 2026-05-07 16:26 | 0.31929 | 31.61855 | 20851 ft | 443 kts | 315° |
| 2026-05-07 16:27 | 0.34081 | 31.59641 | 21154 ft | 445 kts | 314° |
| 2026-05-07 16:27 | 0.36245 | 31.57417 | 21461 ft | 447 kts | 315° |
| 2026-05-07 16:27 | 0.38400 | 31.55213 | 21775 ft | 449 kts | 315° |
| 2026-05-07 16:27 | 0.40590 | 31.52981 | 22071 ft | 451 kts | 315° |
| 2026-05-07 16:28 | 0.42797 | 31.50736 | 22333 ft | 453 kts | 315° |
| 2026-05-07 16:28 | 0.45023 | 31.48478 | 22607 ft | 455 kts | 315° |
| 2026-05-07 16:28 | 0.47249 | 31.46219 | 22875 ft | 457 kts | 315° |
| 2026-05-07 16:28 | 0.49481 | 31.43956 | 23187 ft | 458 kts | 315° |
| 2026-05-07 16:29 | 0.51726 | 31.41679 | 23410 ft | 461 kts | 315° |
| 2026-05-07 16:29 | 0.53957 | 31.39416 | 23622 ft | 463 kts | 315° |
| 2026-05-07 16:29 | 0.56223 | 31.37117 | 23872 ft | 463 kts | 315° |
| 2026-05-07 16:29 | 0.58490 | 31.34817 | 24063 ft | 465 kts | 315° |
| 2026-05-07 16:30 | 0.60771 | 31.32503 | 24236 ft | 468 kts | 315° |
| 2026-05-07 16:30 | 0.63061 | 31.30179 | 24434 ft | 469 kts | 315° |
| 2026-05-07 16:30 | 0.65360 | 31.27847 | 24687 ft | 469 kts | 315° |
| 2026-05-07 16:30 | 0.67652 | 31.25521 | 24878 ft | 471 kts | 315° |
| 2026-05-07 16:31 | 0.69964 | 31.23175 | 25023 ft | 474 kts | 315° |
| 2026-05-07 16:31 | 0.72257 | 31.20848 | 25225 ft | 474 kts | 315° |
| 2026-05-07 16:31 | 0.74577 | 31.18494 | 25471 ft | 474 kts | 315° |
| 2026-05-07 16:31 | 0.76900 | 31.16137 | 25665 ft | 476 kts | 315° |
| 2026-05-07 16:32 | 0.79241 | 31.13761 | 25810 ft | 478 kts | 314° |
| 2026-05-07 16:32 | 0.81547 | 31.11422 | 25960 ft | 480 kts | 315° |
| 2026-05-07 16:32 | 0.83890 | 31.09044 | 26146 ft | 480 kts | 314° |
| 2026-05-07 16:32 | 0.86241 | 31.06658 | 26352 ft | 481 kts | 315° |
| 2026-05-07 16:33 | 0.88602 | 31.04262 | 26490 ft | 483 kts | 314° |
| 2026-05-07 16:33 | 0.90963 | 31.01867 | 26639 ft | 485 kts | 314° |
| 2026-05-07 16:33 | 0.93338 | 30.99456 | 26775 ft | 486 kts | 314° |
| 2026-05-07 16:33 | 0.95690 | 30.97069 | 26990 ft | 486 kts | 314° |
| 2026-05-07 16:34 | 0.98062 | 30.94663 | 27191 ft | 486 kts | 314° |
| 2026-05-07 16:34 | 1.00444 | 30.92245 | 27312 ft | 488 kts | 314° |
| 2026-05-07 16:34 | 1.02828 | 30.89825 | 27453 ft | 489 kts | 314° |
| 2026-05-07 16:34 | 1.05219 | 30.87399 | 27602 ft | 490 kts | 314° |
| 2026-05-07 16:35 | 1.07579 | 30.85004 | 27752 ft | 490 kts | 314° |
| 2026-05-07 16:35 | 1.09980 | 30.82568 | 27891 ft | 491 kts | 314° |
| 2026-05-07 16:35 | 1.12381 | 30.80131 | 28070 ft | 492 kts | 314° |
| 2026-05-07 16:35 | 1.14781 | 30.77695 | 28309 ft | 490 kts | 314° |
| 2026-05-07 16:36 | 1.17177 | 30.75264 | 28567 ft | 489 kts | 314° |
| 2026-05-07 16:36 | 1.19561 | 30.72844 | 28743 ft | 489 kts | 314° |
| 2026-05-07 16:36 | 1.21954 | 30.70416 | 28933 ft | 489 kts | 314° |
| 2026-05-07 16:36 | 1.24340 | 30.67994 | 29156 ft | 488 kts | 314° |
| 2026-05-07 16:37 | 1.26702 | 30.65560 | 29403 ft | 487 kts | 311° |
| 2026-05-07 16:37 | 1.28793 | 30.62934 | 29637 ft | 486 kts | 305° |
| 2026-05-07 16:37 | 1.30723 | 30.60156 | 29860 ft | 486 kts | 303° |
| 2026-05-07 16:37 | 1.32616 | 30.57357 | 30034 ft | 486 kts | 303° |
| 2026-05-07 16:38 | 1.34516 | 30.54550 | 30193 ft | 486 kts | 303° |
| 2026-05-07 16:38 | 1.36424 | 30.51760 | 30398 ft | 486 kts | 304° |
| 2026-05-07 16:38 | 1.38339 | 30.48993 | 30647 ft | 484 kts | 304° |
| 2026-05-07 16:38 | 1.40249 | 30.46255 | 30879 ft | 483 kts | 304° |
| 2026-05-07 16:39 | 1.42172 | 30.43508 | 31091 ft | 483 kts | 304° |
| 2026-05-07 16:39 | 1.44105 | 30.40755 | 31296 ft | 482 kts | 305° |
| 2026-05-07 16:39 | 1.46034 | 30.38009 | 31564 ft | 481 kts | 305° |
| 2026-05-07 16:39 | 1.47950 | 30.35275 | 31847 ft | 479 kts | 305° |
| 2026-05-07 16:40 | 1.49857 | 30.32548 | 32105 ft | 478 kts | 305° |
| 2026-05-07 16:40 | 1.51765 | 30.29818 | 32323 ft | 477 kts | 305° |
| 2026-05-07 16:40 | 1.53668 | 30.27096 | 32546 ft | 477 kts | 305° |
| 2026-05-07 16:40 | 1.55543 | 30.24414 | 32796 ft | 476 kts | 305° |
| 2026-05-07 16:41 | 1.57493 | 30.21747 | 33062 ft | 474 kts | 309° |
| 2026-05-07 16:41 | 1.59623 | 30.19227 | 33316 ft | 474 kts | 311° |
| 2026-05-07 16:41 | 1.61817 | 30.16773 | 33541 ft | 473 kts | 312° |
| 2026-05-07 16:41 | 1.64032 | 30.14334 | 33813 ft | 472 kts | 312° |
| 2026-05-07 16:42 | 1.66232 | 30.11902 | 34086 ft | 470 kts | 311° |
| 2026-05-07 16:42 | 1.68407 | 30.09472 | 34335 ft | 468 kts | 311° |
| 2026-05-07 16:42 | 1.70558 | 30.07047 | 34659 ft | 464 kts | 311° |
| 2026-05-07 16:42 | 1.72662 | 30.04660 | 34873 ft | 464 kts | 311° |
| 2026-05-07 16:43 | 1.74802 | 30.02227 | 34979 ft | 466 kts | 311° |
| 2026-05-07 16:43 | 1.76946 | 29.99785 | 35092 ft | 467 kts | 311° |
| 2026-05-07 16:43 | 1.79087 | 29.97348 | 35417 ft | 463 kts | 311° |
| 2026-05-07 16:43 | 1.81205 | 29.94938 | 35719 ft | 460 kts | 311° |
| 2026-05-07 16:44 | 1.83319 | 29.92534 | 35880 ft | 460 kts | 311° |
| 2026-05-07 16:44 | 1.87543 | 29.87730 | 35905 ft | 464 kts | 311° |
| 2026-05-07 16:45 | 1.91809 | 29.82879 | 35906 ft | 463 kts | 311° |
| 2026-05-07 16:45 | 1.96085 | 29.78058 | 35901 ft | 462 kts | 311° |
| 2026-05-07 16:46 | 2.00355 | 29.73255 | 35891 ft | 461 kts | 311° |
| 2026-05-07 16:46 | 2.04644 | 29.68487 | 35911 ft | 461 kts | 312° |
| 2026-05-07 16:47 | 2.08944 | 29.63747 | 35910 ft | 463 kts | 312° |
| 2026-05-07 16:47 | 2.13286 | 29.58949 | 35911 ft | 465 kts | 312° |
| 2026-05-07 16:48 | 2.17604 | 29.54169 | 35913 ft | 467 kts | 312° |
| 2026-05-07 16:48 | 2.21970 | 29.49336 | 35908 ft | 469 kts | 311° |
| 2026-05-07 16:49 | 2.26363 | 29.44476 | 35898 ft | 470 kts | 311° |
| 2026-05-07 16:49 | 2.30733 | 29.39640 | 35895 ft | 471 kts | 311° |
| 2026-05-07 16:50 | 2.35131 | 29.34771 | 35893 ft | 471 kts | 311° |
| 2026-05-07 16:50 | 2.39526 | 29.29905 | 35892 ft | 471 kts | 311° |
| 2026-05-07 16:51 | 2.43919 | 29.25040 | 35888 ft | 470 kts | 311° |
| 2026-05-07 16:51 | 2.48282 | 29.20207 | 35884 ft | 469 kts | 311° |
| 2026-05-07 16:52 | 2.52664 | 29.15354 | 35888 ft | 468 kts | 311° |
| 2026-05-07 16:52 | 2.57030 | 29.10517 | 35882 ft | 468 kts | 311° |
| 2026-05-07 16:53 | 2.61365 | 29.05714 | 35878 ft | 467 kts | 311° |
| 2026-05-07 16:53 | 2.65726 | 29.00882 | 35877 ft | 467 kts | 311° |
| 2026-05-07 16:54 | 2.69350 | 28.96867 | 35876 ft | 467 kts | 311° |
| 2026-05-07 16:54 | 2.73702 | 28.92042 | 35881 ft | 467 kts | 311° |
| 2026-05-07 16:55 | 2.78053 | 28.87219 | 35877 ft | 468 kts | 311° |
| 2026-05-07 16:55 | 2.82437 | 28.82359 | 35875 ft | 469 kts | 311° |
| 2026-05-07 16:56 | 2.86790 | 28.77531 | 35880 ft | 470 kts | 311° |
| 2026-05-07 16:56 | 2.93378 | 28.70233 | 35881 ft | 470 kts | 311° |
| 2026-05-07 16:57 | 2.97748 | 28.65395 | 35874 ft | 471 kts | 311° |
| 2026-05-07 16:57 | 3.02147 | 28.60522 | 35871 ft | 471 kts | 311° |
| 2026-05-07 16:58 | 3.06544 | 28.55651 | 35870 ft | 471 kts | 311° |
| 2026-05-07 16:58 | 3.10918 | 28.50804 | 35872 ft | 471 kts | 311° |
| 2026-05-07 16:59 | 3.15315 | 28.45929 | 35872 ft | 471 kts | 311° |
| 2026-05-07 16:59 | 3.19704 | 28.41063 | 35874 ft | 470 kts | 311° |
| 2026-05-07 17:00 | 3.24060 | 28.36234 | 35870 ft | 470 kts | 311° |
| 2026-05-07 17:00 | 3.28449 | 28.31368 | 35874 ft | 470 kts | 311° |
| 2026-05-07 17:01 | 3.32840 | 28.26497 | 35876 ft | 470 kts | 311° |
| 2026-05-07 17:01 | 3.37220 | 28.21639 | 35895 ft | 470 kts | 311° |
| 2026-05-07 17:02 | 3.41578 | 28.16805 | 35879 ft | 470 kts | 311° |
| 2026-05-07 17:02 | 3.45976 | 28.11925 | 35874 ft | 471 kts | 311° |
| 2026-05-07 17:03 | 3.50371 | 28.07048 | 35874 ft | 471 kts | 311° |
| 2026-05-07 17:03 | 3.54735 | 28.02205 | 35875 ft | 471 kts | 311° |
| 2026-05-07 17:04 | 3.59132 | 27.97324 | 35872 ft | 471 kts | 311° |
| 2026-05-07 17:04 | 3.63527 | 27.92444 | 35875 ft | 471 kts | 311° |
| 2026-05-07 17:05 | 3.67927 | 27.87559 | 35874 ft | 472 kts | 311° |
| 2026-05-07 17:05 | 3.72306 | 27.82696 | 35871 ft | 472 kts | 311° |
| 2026-05-07 17:06 | 3.76709 | 27.77805 | 35879 ft | 472 kts | 311° |
| 2026-05-07 17:06 | 3.81086 | 27.72943 | 35877 ft | 472 kts | 311° |
| 2026-05-07 17:07 | 3.85481 | 27.68059 | 35877 ft | 472 kts | 311° |
| 2026-05-07 17:07 | 3.89895 | 27.63155 | 35876 ft | 472 kts | 311° |
| 2026-05-07 17:08 | 3.94296 | 27.58263 | 35880 ft | 472 kts | 311° |
| 2026-05-07 17:08 | 3.98670 | 27.53400 | 35880 ft | 472 kts | 311° |
| 2026-05-07 17:09 | 4.03076 | 27.48501 | 35883 ft | 472 kts | 311° |
| 2026-05-07 17:09 | 4.07481 | 27.43604 | 35890 ft | 472 kts | 312° |
| 2026-05-07 17:10 | 4.11854 | 27.38740 | 35881 ft | 472 kts | 312° |
| 2026-05-07 17:10 | 4.16254 | 27.33845 | 35880 ft | 471 kts | 312° |
| 2026-05-07 17:11 | 4.20645 | 27.28959 | 35890 ft | 471 kts | 312° |
| 2026-05-07 17:11 | 4.25027 | 27.24082 | 35885 ft | 470 kts | 312° |
| 2026-05-07 17:12 | 4.29379 | 27.19238 | 35886 ft | 470 kts | 312° |
| 2026-05-07 17:12 | 4.33753 | 27.14369 | 35886 ft | 469 kts | 312° |